sensor_id;sensor_type;location;lat;lon;timestamp;temperature;humidity
9820;DHT22;4949;48.482;9.206;2024-02-21T00:00:43;6.60;98.10
9820;DHT22;4949;48.482;9.206;2024-02-21T00:05:43;7.00;98.40
9820;DHT22;4949;48.482;9.206;2024-02-21T00:10:44;6.70;98.40
9820;DHT22;4949;48.482;9.206;2024-02-21T00:15:45;6.60;98.50
9820;DHT22;4949;48.482;9.206;2024-02-21T00:20:45;7.00;98.70
9820;DHT22;4949;48.482;9.206;2024-02-21T00:25:46;6.60;98.70
9820;DHT22;4949;48.482;9.206;2024-02-21T00:30:47;6.60;98.80
9820;DHT22;4949;48.482;9.206;2024-02-21T00:35:49;6.40;98.70
9820;DHT22;4949;48.482;9.206;2024-02-21T00:40:52;6.50;98.80
9820;DHT22;4949;48.482;9.206;2024-02-21T00:45:52;6.50;98.80
9820;DHT22;4949;48.482;9.206;2024-02-21T00:50:53;6.50;98.80
9820;DHT22;4949;48.482;9.206;2024-02-21T00:55:54;6.50;98.70
9820;DHT22;4949;48.482;9.206;2024-02-21T01:00:57;6.50;98.70
9820;DHT22;4949;48.482;9.206;2024-02-21T01:05:57;6.50;98.80
9820;DHT22;4949;48.482;9.206;2024-02-21T01:11:01;6.60;98.90
9820;DHT22;4949;48.482;9.206;2024-02-21T01:16:02;6.40;99.00
9820;DHT22;4949;48.482;9.206;2024-02-21T01:21:03;6.40;99.20
9820;DHT22;4949;48.482;9.206;2024-02-21T01:26:07;6.40;99.10
9820;DHT22;4949;48.482;9.206;2024-02-21T01:31:08;6.40;99.00
9820;DHT22;4949;48.482;9.206;2024-02-21T01:36:09;6.30;98.90
9820;DHT22;4949;48.482;9.206;2024-02-21T01:41:10;6.30;99.00
9820;DHT22;4949;48.482;9.206;2024-02-21T01:46:13;6.30;98.90
9820;DHT22;4949;48.482;9.206;2024-02-21T01:51:15;6.30;98.90
9820;DHT22;4949;48.482;9.206;2024-02-21T01:56:19;6.30;99.00
9820;DHT22;4949;48.482;9.206;2024-02-21T02:01:21;6.40;99.00
9820;DHT22;4949;48.482;9.206;2024-02-21T02:06:24;6.40;98.90
9820;DHT22;4949;48.482;9.206;2024-02-21T02:11:25;6.50;98.20
9820;DHT22;4949;48.482;9.206;2024-02-21T02:16:26;6.60;97.90
9820;DHT22;4949;48.482;9.206;2024-02-21T02:21:28;6.70;97.80
9820;DHT22;4949;48.482;9.206;2024-02-21T02:26:30;6.80;96.90
9820;DHT22;4949;48.482;9.206;2024-02-21T02:31:31;6.80;97.50
9820;DHT22;4949;48.482;9.206;2024-02-21T02:36:32;6.90;97.20
9820;DHT22;4949;48.482;9.206;2024-02-21T02:41:36;7.20;96.90
9820;DHT22;4949;48.482;9.206;2024-02-21T02:46:40;7.00;96.00
9820;DHT22;4949;48.482;9.206;2024-02-21T02:51:42;7.10;95.50
9820;DHT22;4949;48.482;9.206;2024-02-21T02:56:43;7.00;95.30
9820;DHT22;4949;48.482;9.206;2024-02-21T03:01:44;7.10;95.10
9820;DHT22;4949;48.482;9.206;2024-02-21T03:06:45;7.10;95.30
9820;DHT22;4949;48.482;9.206;2024-02-21T03:11:46;7.00;95.10
9820;DHT22;4949;48.482;9.206;2024-02-21T03:16:46;6.90;95.20
9820;DHT22;4949;48.482;9.206;2024-02-21T03:21:47;6.80;95.40
9820;DHT22;4949;48.482;9.206;2024-02-21T03:26:48;6.80;95.30
9820;DHT22;4949;48.482;9.206;2024-02-21T03:31:49;6.90;95.00
9820;DHT22;4949;48.482;9.206;2024-02-21T03:36:53;6.90;95.00
9820;DHT22;4949;48.482;9.206;2024-02-21T03:41:57;6.90;95.00
9820;DHT22;4949;48.482;9.206;2024-02-21T03:47:01;7.00;94.80
9820;DHT22;4949;48.482;9.206;2024-02-21T03:52:02;6.90;94.80
9820;DHT22;4949;48.482;9.206;2024-02-21T03:57:05;6.90;94.60
9820;DHT22;4949;48.482;9.206;2024-02-21T04:02:06;7.30;94.80
9820;DHT22;4949;48.482;9.206;2024-02-21T04:07:09;7.40;94.90
9820;DHT22;4949;48.482;9.206;2024-02-21T04:12:10;7.00;94.80
9820;DHT22;4949;48.482;9.206;2024-02-21T04:17:11;6.90;95.00
9820;DHT22;4949;48.482;9.206;2024-02-21T04:22:12;6.90;95.30
9820;DHT22;4949;48.482;9.206;2024-02-21T04:27:13;6.90;95.90
9820;DHT22;4949;48.482;9.206;2024-02-21T04:32:13;6.80;96.50
9820;DHT22;4949;48.482;9.206;2024-02-21T04:37:14;6.70;96.80
9820;DHT22;4949;48.482;9.206;2024-02-21T04:42:15;7.00;97.40
9820;DHT22;4949;48.482;9.206;2024-02-21T04:47:16;6.60;97.10
9820;DHT22;4949;48.482;9.206;2024-02-21T04:52:17;6.80;97.30
9820;DHT22;4949;48.482;9.206;2024-02-21T04:57:18;6.60;97.20
9820;DHT22;4949;48.482;9.206;2024-02-21T05:02:18;6.60;97.20
9820;DHT22;4949;48.482;9.206;2024-02-21T05:07:25;6.60;97.40
9820;DHT22;4949;48.482;9.206;2024-02-21T05:12:26;6.50;97.50
9820;DHT22;4949;48.482;9.206;2024-02-21T05:17:26;6.50;97.50
9820;DHT22;4949;48.482;9.206;2024-02-21T05:22:27;6.40;97.70
9820;DHT22;4949;48.482;9.206;2024-02-21T05:27:28;6.40;97.90
9820;DHT22;4949;48.482;9.206;2024-02-21T05:32:31;6.70;98.10
9820;DHT22;4949;48.482;9.206;2024-02-21T05:37:34;6.30;98.40
9820;DHT22;4949;48.482;9.206;2024-02-21T05:42:35;6.60;98.50
9820;DHT22;4949;48.482;9.206;2024-02-21T05:47:35;6.10;98.10
9820;DHT22;4949;48.482;9.206;2024-02-21T05:52:36;6.00;98.00
9820;DHT22;4949;48.482;9.206;2024-02-21T05:57:39;6.10;97.50
9820;DHT22;4949;48.482;9.206;2024-02-21T06:02:40;5.90;98.50
9820;DHT22;4949;48.482;9.206;2024-02-21T06:07:44;6.00;98.90
9820;DHT22;4949;48.482;9.206;2024-02-21T06:12:45;5.70;98.80
9820;DHT22;4949;48.482;9.206;2024-02-21T06:17:46;5.70;98.80
9820;DHT22;4949;48.482;9.206;2024-02-21T06:22:46;5.90;99.30
9820;DHT22;4949;48.482;9.206;2024-02-21T06:27:47;5.60;99.40
9820;DHT22;4949;48.482;9.206;2024-02-21T06:32:48;5.70;99.30
9820;DHT22;4949;48.482;9.206;2024-02-21T06:37:49;5.70;99.20
9820;DHT22;4949;48.482;9.206;2024-02-21T06:42:51;5.60;99.50
9820;DHT22;4949;48.482;9.206;2024-02-21T06:47:54;5.70;98.90
9820;DHT22;4949;48.482;9.206;2024-02-21T06:52:55;5.70;99.20
9820;DHT22;4949;48.482;9.206;2024-02-21T06:57:55;5.50;99.10
9820;DHT22;4949;48.482;9.206;2024-02-21T07:02:56;5.60;99.30
9820;DHT22;4949;48.482;9.206;2024-02-21T07:07:58;5.60;99.30
9820;DHT22;4949;48.482;9.206;2024-02-21T07:12:59;5.80;99.50
9820;DHT22;4949;48.482;9.206;2024-02-21T07:18:00;5.80;99.50
9820;DHT22;4949;48.482;9.206;2024-02-21T07:23:01;5.80;99.40
9820;DHT22;4949;48.482;9.206;2024-02-21T07:28:02;5.80;99.30
9820;DHT22;4949;48.482;9.206;2024-02-21T07:33:03;5.90;99.30
9820;DHT22;4949;48.482;9.206;2024-02-21T07:38:04;5.90;99.30
9820;DHT22;4949;48.482;9.206;2024-02-21T07:43:05;5.90;99.10
9820;DHT22;4949;48.482;9.206;2024-02-21T07:48:06;6.40;99.30
9820;DHT22;4949;48.482;9.206;2024-02-21T07:53:10;6.10;99.00
9820;DHT22;4949;48.482;9.206;2024-02-21T07:58:10;6.10;98.70
9820;DHT22;4949;48.482;9.206;2024-02-21T08:03:14;6.60;98.70
9820;DHT22;4949;48.482;9.206;2024-02-21T08:08:17;6.30;98.40
9820;DHT22;4949;48.482;9.206;2024-02-21T08:13:21;6.40;98.00
9820;DHT22;4949;48.482;9.206;2024-02-21T08:18:22;6.50;98.00
9820;DHT22;4949;48.482;9.206;2024-02-21T08:23:25;6.50;97.90
9820;DHT22;4949;48.482;9.206;2024-02-21T08:28:26;6.60;97.70
9820;DHT22;4949;48.482;9.206;2024-02-21T08:33:26;7.10;97.90
9820;DHT22;4949;48.482;9.206;2024-02-21T08:38:28;6.80;97.70
9820;DHT22;4949;48.482;9.206;2024-02-21T08:43:28;6.90;97.50
9820;DHT22;4949;48.482;9.206;2024-02-21T08:48:31;7.10;97.20
9820;DHT22;4949;48.482;9.206;2024-02-21T08:53:32;7.10;97.00
9820;DHT22;4949;48.482;9.206;2024-02-21T08:58:32;7.20;96.60
9820;DHT22;4949;48.482;9.206;2024-02-21T09:03:37;7.30;96.90
9820;DHT22;4949;48.482;9.206;2024-02-21T09:08:38;7.80;97.10
9820;DHT22;4949;48.482;9.206;2024-02-21T09:13:42;7.50;96.20
9820;DHT22;4949;48.482;9.206;2024-02-21T09:18:45;7.50;95.80
9820;DHT22;4949;48.482;9.206;2024-02-21T09:23:47;7.40;95.70
9820;DHT22;4949;48.482;9.206;2024-02-21T09:28:48;7.70;95.70
9820;DHT22;4949;48.482;9.206;2024-02-21T09:33:52;7.90;96.20
9820;DHT22;4949;48.482;9.206;2024-02-21T09:38:53;7.90;95.60
9820;DHT22;4949;48.482;9.206;2024-02-21T09:43:56;8.00;95.50
9820;DHT22;4949;48.482;9.206;2024-02-21T09:54:33;8.30;95.20
9820;DHT22;4949;48.482;9.206;2024-02-21T09:59:34;8.50;95.40
9820;DHT22;4949;48.482;9.206;2024-02-21T10:04:35;8.70;95.00
9820;DHT22;4949;48.482;9.206;2024-02-21T10:09:40;8.80;94.40
9820;DHT22;4949;48.482;9.206;2024-02-21T10:14:42;8.90;94.00
9820;DHT22;4949;48.482;9.206;2024-02-21T10:19:43;9.20;93.70
9820;DHT22;4949;48.482;9.206;2024-02-21T10:24:44;9.40;93.50
9820;DHT22;4949;48.482;9.206;2024-02-21T10:29:49;9.80;93.30
9820;DHT22;4949;48.482;9.206;2024-02-21T10:35:03;10.00;91.60
9820;DHT22;4949;48.482;9.206;2024-02-21T10:40:09;10.20;91.50
9820;DHT22;4949;48.482;9.206;2024-02-21T10:45:10;10.50;90.70
9820;DHT22;4949;48.482;9.206;2024-02-21T10:50:12;10.70;90.20
9820;DHT22;4949;48.482;9.206;2024-02-21T10:55:20;10.90;89.20
9820;DHT22;4949;48.482;9.206;2024-02-21T11:00:26;11.10;88.70
9820;DHT22;4949;48.482;9.206;2024-02-21T11:05:30;11.30;87.90
9820;DHT22;4949;48.482;9.206;2024-02-21T11:10:32;11.60;86.40
9820;DHT22;4949;48.482;9.206;2024-02-21T11:15:37;11.70;85.40
9820;DHT22;4949;48.482;9.206;2024-02-21T11:20:49;11.90;84.50
9820;DHT22;4949;48.482;9.206;2024-02-21T11:26:10;12.30;83.50
9820;DHT22;4949;48.482;9.206;2024-02-21T11:31:12;12.00;83.40
9820;DHT22;4949;48.482;9.206;2024-02-21T11:36:26;12.10;83.10
9820;DHT22;4949;48.482;9.206;2024-02-21T11:41:27;12.30;82.20
9820;DHT22;4949;48.482;9.206;2024-02-21T11:46:31;12.40;81.60
9820;DHT22;4949;48.482;9.206;2024-02-21T11:51:32;12.60;81.70
9820;DHT22;4949;48.482;9.206;2024-02-21T11:56:32;12.60;81.30
9820;DHT22;4949;48.482;9.206;2024-02-21T12:01:35;12.70;81.10
9820;DHT22;4949;48.482;9.206;2024-02-21T12:06:38;12.70;80.40
9820;DHT22;4949;48.482;9.206;2024-02-21T12:11:40;13.00;81.00
9820;DHT22;4949;48.482;9.206;2024-02-21T12:16:45;12.90;79.40
9820;DHT22;4949;48.482;9.206;2024-02-21T12:21:48;12.90;78.20
9820;DHT22;4949;48.482;9.206;2024-02-21T12:26:51;13.00;80.80
9820;DHT22;4949;48.482;9.206;2024-02-21T12:31:57;13.10;81.20
9820;DHT22;4949;48.482;9.206;2024-02-21T12:36:58;13.30;81.10
9820;DHT22;4949;48.482;9.206;2024-02-21T12:42:02;13.30;79.80
9820;DHT22;4949;48.482;9.206;2024-02-21T12:47:03;13.30;79.40
9820;DHT22;4949;48.482;9.206;2024-02-21T12:52:04;13.40;76.80
9820;DHT22;4949;48.482;9.206;2024-02-21T12:57:08;13.60;76.80
9820;DHT22;4949;48.482;9.206;2024-02-21T13:02:09;13.70;76.50
9820;DHT22;4949;48.482;9.206;2024-02-21T13:07:10;13.70;75.40
9820;DHT22;4949;48.482;9.206;2024-02-21T13:12:11;13.60;75.30
9820;DHT22;4949;48.482;9.206;2024-02-21T13:17:14;13.70;75.20
9820;DHT22;4949;48.482;9.206;2024-02-21T13:22:18;13.60;75.10
9820;DHT22;4949;48.482;9.206;2024-02-21T13:27:22;13.70;75.30
9820;DHT22;4949;48.482;9.206;2024-02-21T13:32:23;13.90;75.40
9820;DHT22;4949;48.482;9.206;2024-02-21T13:37:24;14.10;74.30
9820;DHT22;4949;48.482;9.206;2024-02-21T13:42:24;14.10;74.20
9820;DHT22;4949;48.482;9.206;2024-02-21T13:47:28;14.10;73.80
9820;DHT22;4949;48.482;9.206;2024-02-21T13:52:30;14.20;74.30
9820;DHT22;4949;48.482;9.206;2024-02-21T13:57:34;14.40;72.40
9820;DHT22;4949;48.482;9.206;2024-02-21T14:02:35;14.50;71.80
9820;DHT22;4949;48.482;9.206;2024-02-21T14:07:36;14.40;72.10
9820;DHT22;4949;48.482;9.206;2024-02-21T14:12:36;14.30;72.10
9820;DHT22;4949;48.482;9.206;2024-02-21T14:17:38;14.30;72.30
9820;DHT22;4949;48.482;9.206;2024-02-21T14:22:39;14.30;72.70
9820;DHT22;4949;48.482;9.206;2024-02-21T14:27:40;14.30;71.40
9820;DHT22;4949;48.482;9.206;2024-02-21T14:32:44;14.40;70.90
9820;DHT22;4949;48.482;9.206;2024-02-21T14:37:48;14.50;71.70
9820;DHT22;4949;48.482;9.206;2024-02-21T14:42:49;14.60;70.80
9820;DHT22;4949;48.482;9.206;2024-02-21T14:47:50;14.50;71.20
9820;DHT22;4949;48.482;9.206;2024-02-21T14:52:51;14.50;71.00
9820;DHT22;4949;48.482;9.206;2024-02-21T14:57:52;14.40;70.10
9820;DHT22;4949;48.482;9.206;2024-02-21T15:02:53;14.40;69.80
9820;DHT22;4949;48.482;9.206;2024-02-21T15:07:56;14.70;70.20
9820;DHT22;4949;48.482;9.206;2024-02-21T15:12:58;14.40;70.80
9820;DHT22;4949;48.482;9.206;2024-02-21T15:18:01;14.40;70.80
9820;DHT22;4949;48.482;9.206;2024-02-21T15:23:04;14.30;71.90
9820;DHT22;4949;48.482;9.206;2024-02-21T15:28:05;14.10;73.80
9820;DHT22;4949;48.482;9.206;2024-02-21T15:33:06;14.10;74.70
9820;DHT22;4949;48.482;9.206;2024-02-21T15:38:07;14.00;74.40
9820;DHT22;4949;48.482;9.206;2024-02-21T15:43:09;14.00;74.30
9820;DHT22;4949;48.482;9.206;2024-02-21T15:48:10;14.10;73.70
9820;DHT22;4949;48.482;9.206;2024-02-21T15:53:11;14.10;74.90
9820;DHT22;4949;48.482;9.206;2024-02-21T15:58:11;14.00;75.00
9820;DHT22;4949;48.482;9.206;2024-02-21T16:03:13;14.00;74.90
9820;DHT22;4949;48.482;9.206;2024-02-21T16:08:14;14.10;75.40
9820;DHT22;4949;48.482;9.206;2024-02-21T16:13:18;14.00;75.80
9820;DHT22;4949;48.482;9.206;2024-02-21T16:18:19;13.90;76.10
9820;DHT22;4949;48.482;9.206;2024-02-21T16:23:24;14.20;76.50
9820;DHT22;4949;48.482;9.206;2024-02-21T16:28:24;14.00;76.90
9820;DHT22;4949;48.482;9.206;2024-02-21T16:33:28;13.70;77.10
9820;DHT22;4949;48.482;9.206;2024-02-21T16:38:31;13.70;76.60
9820;DHT22;4949;48.482;9.206;2024-02-21T16:43:33;13.70;73.70
9820;DHT22;4949;48.482;9.206;2024-02-21T16:48:34;13.50;72.70
9820;DHT22;4949;48.482;9.206;2024-02-21T16:53:34;13.30;72.90
9820;DHT22;4949;48.482;9.206;2024-02-21T16:58:37;13.30;72.20
9820;DHT22;4949;48.482;9.206;2024-02-21T17:03:40;13.10;71.90
9820;DHT22;4949;48.482;9.206;2024-02-21T17:08:41;13.00;71.20
9820;DHT22;4949;48.482;9.206;2024-02-21T17:13:44;13.00;69.70
9820;DHT22;4949;48.482;9.206;2024-02-21T17:18:45;12.90;72.60
9820;DHT22;4949;48.482;9.206;2024-02-21T17:23:47;12.70;73.20
9820;DHT22;4949;48.482;9.206;2024-02-21T17:28:49;12.60;73.10
9820;DHT22;4949;48.482;9.206;2024-02-21T17:33:53;12.50;71.20
9820;DHT22;4949;48.482;9.206;2024-02-21T17:38:54;12.50;70.90
9820;DHT22;4949;48.482;9.206;2024-02-21T17:43:55;12.50;69.30
9820;DHT22;4949;48.482;9.206;2024-02-21T17:48:58;12.50;67.40
9820;DHT22;4949;48.482;9.206;2024-02-21T17:53:59;12.50;64.40
9820;DHT22;4949;48.482;9.206;2024-02-21T17:59:00;12.50;64.30
9820;DHT22;4949;48.482;9.206;2024-02-21T18:04:00;12.50;64.60
9820;DHT22;4949;48.482;9.206;2024-02-21T18:09:01;12.50;64.90
9820;DHT22;4949;48.482;9.206;2024-02-21T18:14:04;12.40;63.30
9820;DHT22;4949;48.482;9.206;2024-02-21T18:19:07;12.70;60.90
9820;DHT22;4949;48.482;9.206;2024-02-21T18:24:08;12.50;60.30
9820;DHT22;4949;48.482;9.206;2024-02-21T18:29:09;12.40;59.20
9820;DHT22;4949;48.482;9.206;2024-02-21T18:34:10;12.50;58.50
9820;DHT22;4949;48.482;9.206;2024-02-21T18:39:11;12.50;57.30
9820;DHT22;4949;48.482;9.206;2024-02-21T18:44:12;12.50;57.20
9820;DHT22;4949;48.482;9.206;2024-02-21T18:49:13;12.50;58.70
9820;DHT22;4949;48.482;9.206;2024-02-21T18:54:14;12.40;58.60
9820;DHT22;4949;48.482;9.206;2024-02-21T18:59:14;12.40;59.10
9820;DHT22;4949;48.482;9.206;2024-02-21T19:04:15;12.40;59.40
9820;DHT22;4949;48.482;9.206;2024-02-21T19:09:16;12.40;58.20
9820;DHT22;4949;48.482;9.206;2024-02-21T19:14:19;12.30;58.40
9820;DHT22;4949;48.482;9.206;2024-02-21T19:19:20;12.40;58.50
9820;DHT22;4949;48.482;9.206;2024-02-21T19:24:23;12.40;58.30
9820;DHT22;4949;48.482;9.206;2024-02-21T19:29:25;12.40;57.70
9820;DHT22;4949;48.482;9.206;2024-02-21T19:34:27;12.50;57.10
9820;DHT22;4949;48.482;9.206;2024-02-21T19:39:28;12.70;58.10
9820;DHT22;4949;48.482;9.206;2024-02-21T19:44:32;12.70;57.80
9820;DHT22;4949;48.482;9.206;2024-02-21T19:49:32;12.70;59.20
9820;DHT22;4949;48.482;9.206;2024-02-21T19:54:33;12.70;59.00
9820;DHT22;4949;48.482;9.206;2024-02-21T19:59:34;12.60;59.20
9820;DHT22;4949;48.482;9.206;2024-02-21T20:04:37;12.90;60.10
9820;DHT22;4949;48.482;9.206;2024-02-21T20:09:41;12.60;60.90
9820;DHT22;4949;48.482;9.206;2024-02-21T20:14:41;12.70;62.10
9820;DHT22;4949;48.482;9.206;2024-02-21T20:19:43;12.70;63.00
9820;DHT22;4949;48.482;9.206;2024-02-21T20:24:43;12.70;63.50
9820;DHT22;4949;48.482;9.206;2024-02-21T20:29:44;12.60;64.00
9820;DHT22;4949;48.482;9.206;2024-02-21T20:34:47;12.60;65.10
9820;DHT22;4949;48.482;9.206;2024-02-21T20:39:48;12.60;65.40
9820;DHT22;4949;48.482;9.206;2024-02-21T20:44:49;12.50;65.10
9820;DHT22;4949;48.482;9.206;2024-02-21T20:49:51;12.50;65.60
9820;DHT22;4949;48.482;9.206;2024-02-21T20:54:53;12.50;66.00
9820;DHT22;4949;48.482;9.206;2024-02-21T20:59:54;12.50;66.50
9820;DHT22;4949;48.482;9.206;2024-02-21T21:04:58;12.50;67.00
9820;DHT22;4949;48.482;9.206;2024-02-21T21:09:59;13.00;67.80
9820;DHT22;4949;48.482;9.206;2024-02-21T21:15:00;12.50;67.60
9820;DHT22;4949;48.482;9.206;2024-02-21T21:20:01;12.60;67.10
9820;DHT22;4949;48.482;9.206;2024-02-21T21:25:11;12.50;67.40
9820;DHT22;4949;48.482;9.206;2024-02-21T21:30:13;12.60;66.60
9820;DHT22;4949;48.482;9.206;2024-02-21T21:35:15;12.60;66.20
9820;DHT22;4949;48.482;9.206;2024-02-21T21:40:15;12.60;66.60
9820;DHT22;4949;48.482;9.206;2024-02-21T21:45:16;12.60;66.90
9820;DHT22;4949;48.482;9.206;2024-02-21T21:50:18;12.50;67.20
9820;DHT22;4949;48.482;9.206;2024-02-21T21:55:19;12.50;66.90
9820;DHT22;4949;48.482;9.206;2024-02-21T22:00:22;12.70;65.90
9820;DHT22;4949;48.482;9.206;2024-02-21T22:05:23;12.70;65.60
9820;DHT22;4949;48.482;9.206;2024-02-21T22:10:23;12.70;63.70
9820;DHT22;4949;48.482;9.206;2024-02-21T22:15:24;12.70;62.80
9820;DHT22;4949;48.482;9.206;2024-02-21T22:20:26;12.90;61.50
9820;DHT22;4949;48.482;9.206;2024-02-21T22:25:27;12.90;60.60
9820;DHT22;4949;48.482;9.206;2024-02-21T22:30:27;13.10;59.20
9820;DHT22;4949;48.482;9.206;2024-02-21T22:35:28;13.30;57.80
9820;DHT22;4949;48.482;9.206;2024-02-21T22:40:29;13.70;57.00
9820;DHT22;4949;48.482;9.206;2024-02-21T22:45:30;13.40;56.60
9820;DHT22;4949;48.482;9.206;2024-02-21T22:50:31;13.90;56.20
9820;DHT22;4949;48.482;9.206;2024-02-21T22:55:33;13.30;55.90
9820;DHT22;4949;48.482;9.206;2024-02-21T23:00:33;13.40;55.40
9820;DHT22;4949;48.482;9.206;2024-02-21T23:05:37;13.40;55.60
9820;DHT22;4949;48.482;9.206;2024-02-21T23:10:37;13.30;56.00
9820;DHT22;4949;48.482;9.206;2024-02-21T23:15:38;13.30;57.00
9820;DHT22;4949;48.482;9.206;2024-02-21T23:20:39;13.10;59.30
9820;DHT22;4949;48.482;9.206;2024-02-21T23:25:40;13.10;60.70
9820;DHT22;4949;48.482;9.206;2024-02-21T23:30:43;13.60;61.60
9820;DHT22;4949;48.482;9.206;2024-02-21T23:35:44;13.20;62.00
9820;DHT22;4949;48.482;9.206;2024-02-21T23:40:45;13.20;61.50
9820;DHT22;4949;48.482;9.206;2024-02-21T23:45:46;13.20;60.90
9820;DHT22;4949;48.482;9.206;2024-02-21T23:50:49;13.30;60.60
9820;DHT22;4949;48.482;9.206;2024-02-21T23:55:50;13.30;60.00
